Overview Statistics Trail Chart Weather Telemetry Raw packets
 

This is the latest recevied weather packets stored in our database for station/object LU2DKV-10. If no packets are shown the sender has not sent any weather packets the latest 10 day(s).

<< 13 14 15 16 17 18 >>
Time Temp. Humidity Pressure Rain* Wind** Luminosity Snow
1787960563 13.89° C 82% 1013 hPa - - 0 W/m² -
1787958742 14.44° C 81% 1012 hPa - - 0 W/m² -
1787956917 14.44° C 78% 1012 hPa - - 0 W/m² -
1787955093 15.56° C 71% 1011 hPa - - 0 W/m² -
1787953270 16.11° C 62% 1011 hPa - - 0 W/m² -
1787951447 16.67° C 54% 1011 hPa - - 0 W/m² -
1787949624 17.22° C 56% 1011 hPa - - 0 W/m² -
1787947802 17.22° C 60% 1010 hPa - - 0 W/m² -
1787945980 17.22° C 56% 1010 hPa - - 0 W/m² -
1787944156 17.78° C 58% 1010 hPa - - 0 W/m² -
1787942334 17.78° C 55% 1010 hPa - - 0 W/m² -
1787940511 17.78° C 54% 1010 hPa - - 0 W/m² -
1787938690 17.78° C 49% 1010 hPa - - 0 W/m² -
1787936865 17.78° C 50% 1010 hPa - - 0 W/m² -
1787935042 17.78° C 50% 1010 hPa - - 0 W/m² -
1787933220 17.22° C 50% 1010 hPa - - 0 W/m² -
1787931538 16.67° C 51% 1011 hPa - - 0 W/m² -
1787929715 16.67° C 52% 1011 hPa - - 0 W/m² -
1787927892 16.11° C 53% 1011 hPa - - 0 W/m² -
1787926070 15.56° C 58% 1011 hPa - - 0 W/m² -
1787924246 15° C 69% 1011 hPa - - 0 W/m² -
1787922423 13.89° C 80% 1011 hPa - - 0 W/m² -
1787920599 13.89° C 82% 1010 hPa - - 0 W/m² -
1787918781 13.89° C 86% 1010 hPa - - 0 W/m² -
1787916954 13.33° C 90% 1010 hPa - - 0 W/m² -

* Rain since midnight (hover to see other rain measurements)
** Current wind speed in m/s (hover to see current wind gust speed)